Archival Weather

Chicago O'Hare International

Chicago, Illinois (KORD)

Report from: Friday, March 30, 2012 12:51 PM CDT
Current time: Wednesday, May 29, 2024 3:04 AM CDT

Current weather – Weather history – Daily summaries
Weather forecast

Temperature10.6°C (51.1°F)
Dew point6.7°C (44.1°F)
Winds 7 kts (3.6 m/s, 8.1 mph) North-Northeast (20°)
Visibility7 mi. (11.3 km)
Clouds Ceiling: Overcast 1,100 ft. (335 m)
Altimeter29.74 in.Hg (1007 mB)
Precip last 3 hours0.51 in. (13 mm)
Relative humidity77 %
Density altitude-181 ft. (-55 m)
Sea-level pressure100.7 kPa (1007 mB, 29.75 in.Hg)
Max temp last 6 hours11.7°C (53.1°F)
Min temp last 6 hours7.2°C (45.0°F)
Remarks Automated weather observing station with precipitation discriminator
Pressure falling, then rising
Flight conditions Marginal Visual Meteorological Conditions
Raw data2012-03-30 17:51 KORD 301751Z 02007KT 7SM OVC011 11/07 A2974 RMK AO2 SLP073 60051 T01060067 10117 20072 55000
An error has occurred. This application may no longer respond until reloaded. Reload 🗙